createdAt,value
2016-07-15T00:00:09.967Z,1018.46
2016-07-15T00:00:19.963Z,1018.51
2016-07-15T00:00:29.958Z,1018.5
2016-07-15T00:00:39.958Z,1018.48
2016-07-15T00:00:49.950Z,1018.5
2016-07-15T00:00:59.944Z,1018.48
2016-07-15T00:01:09.939Z,1018.48
2016-07-15T00:01:19.934Z,1018.5
2016-07-15T00:01:29.931Z,1018.48
2016-07-15T00:01:39.925Z,1018.47
2016-07-15T00:01:49.918Z,1018.52
2016-07-15T00:01:59.913Z,1018.49
2016-07-15T00:02:09.908Z,1018.52
2016-07-15T00:02:19.905Z,1018.53
2016-07-15T00:02:29.899Z,1018.44
2016-07-15T00:02:39.903Z,1018.53
2016-07-15T00:02:49.890Z,1018.52
2016-07-15T00:02:59.883Z,1018.5
2016-07-15T00:03:09.878Z,1018.52
2016-07-15T00:03:19.873Z,1018.52
2016-07-15T00:03:29.869Z,1018.54
2016-07-15T00:03:39.866Z,1018.49
2016-07-15T00:03:49.860Z,1018.51
2016-07-15T00:03:59.855Z,1018.48
2016-07-15T00:04:09.851Z,1018.53
2016-07-15T00:04:19.843Z,1018.51
2016-07-15T00:04:29.839Z,1018.5
2016-07-15T00:04:39.836Z,1018.48
2016-07-15T00:04:49.830Z,1018.49
2016-07-15T00:04:59.823Z,1018.52
2016-07-15T00:05:09.817Z,1018.53
2016-07-15T00:05:19.812Z,1018.5
2016-07-15T00:05:29.815Z,1018.52
2016-07-15T00:05:39.802Z,1018.5
2016-07-15T00:05:49.798Z,1018.49
2016-07-15T00:05:59.793Z,1018.46
2016-07-15T00:06:09.789Z,1018.5
2016-07-15T00:06:19.783Z,1018.51
2016-07-15T00:06:29.779Z,1018.49
2016-07-15T00:06:39.773Z,1018.53
2016-07-15T00:06:49.770Z,1018.51
2016-07-15T00:06:59.763Z,1018.48
2016-07-15T00:07:09.759Z,1018.53
2016-07-15T00:07:19.754Z,1018.53
2016-07-15T00:07:29.748Z,1018.53
2016-07-15T00:07:39.744Z,1018.52
2016-07-15T00:07:49.739Z,1018.55
2016-07-15T00:07:59.732Z,1018.53
2016-07-15T00:08:09.728Z,1018.58
2016-07-15T00:08:19.723Z,1018.52
2016-07-15T00:08:29.716Z,1018.57
2016-07-15T00:08:39.714Z,1018.54
2016-07-15T00:08:49.709Z,1018.52
2016-07-15T00:08:59.702Z,1018.55
2016-07-15T00:09:09.701Z,1018.53
2016-07-15T00:09:19.693Z,1018.57
2016-07-15T00:09:29.689Z,1018.49
2016-07-15T00:09:39.683Z,1018.56
2016-07-15T00:09:49.679Z,1018.48
2016-07-15T00:09:59.674Z,1018.53
2016-07-15T00:10:09.668Z,1018.55
2016-07-15T00:10:19.662Z,1018.53
2016-07-15T00:10:29.658Z,1018.52
2016-07-15T00:10:39.651Z,1018.52
2016-07-15T00:10:49.649Z,1018.48
2016-07-15T00:10:59.643Z,1018.5
2016-07-15T00:11:10.367Z,1018.53
2016-07-15T00:11:19.633Z,1018.53
2016-07-15T00:11:29.628Z,1018.53
2016-07-15T00:11:39.623Z,1018.47
2016-07-15T00:11:49.616Z,1018.51
2016-07-15T00:11:59.612Z,1018.51
2016-07-15T00:12:09.610Z,1018.47
2016-07-15T00:12:19.604Z,1018.5
2016-07-15T00:12:29.600Z,1018.54
2016-07-15T00:12:39.594Z,1018.48
2016-07-15T00:12:49.587Z,1018.48
2016-07-15T00:12:59.584Z,1018.49
2016-07-15T00:13:09.580Z,1018.54
2016-07-15T00:13:19.573Z,1018.52
2016-07-15T00:13:29.568Z,1018.47
2016-07-15T00:13:39.562Z,1018.51
2016-07-15T00:13:49.558Z,1018.49
2016-07-15T00:13:59.555Z,1018.5
2016-07-15T00:14:09.548Z,1018.48
2016-07-15T00:14:19.544Z,1018.52
2016-07-15T00:14:30.268Z,1018.5
2016-07-15T00:14:39.534Z,1018.53
2016-07-15T00:14:49.527Z,1018.53
2016-07-15T00:14:59.521Z,1018.56
2016-07-15T00:15:09.517Z,1018.51
2016-07-15T00:15:19.513Z,1018.5
2016-07-15T00:15:29.509Z,1018.5
2016-07-15T00:15:39.503Z,1018.56
2016-07-15T00:15:49.497Z,1018.54
2016-07-15T00:15:59.499Z,1018.48
2016-07-15T00:16:09.488Z,1018.51
2016-07-15T00:16:19.481Z,1018.54
2016-07-15T00:16:29.478Z,1018.49
2016-07-15T00:16:39.474Z,1018.49
2016-07-15T00:16:49.467Z,1018.46
2016-07-15T00:16:59.464Z,1018.46
2016-07-15T00:17:09.459Z,1018.55
2016-07-15T00:17:19.454Z,1018.51
2016-07-15T00:17:29.454Z,1018.53
2016-07-15T00:17:39.450Z,1018.54
2016-07-15T00:17:49.437Z,1018.52
2016-07-15T00:17:59.436Z,1018.52
2016-07-15T00:18:09.430Z,1018.51
2016-07-15T00:18:19.423Z,1018.52
2016-07-15T00:18:29.420Z,1018.52
2016-07-15T00:18:39.410Z,1018.51
2016-07-15T00:18:49.407Z,1018.5
2016-07-15T00:18:59.403Z,1018.51
2016-07-15T00:19:09.400Z,1018.49
2016-07-15T00:19:19.392Z,1018.48
2016-07-15T00:19:29.387Z,1018.5
2016-07-15T00:19:39.383Z,1018.52
2016-07-15T00:19:49.379Z,1018.52
2016-07-15T00:19:59.375Z,1018.49
2016-07-15T00:20:09.367Z,1018.48
2016-07-15T00:20:19.364Z,1018.51
2016-07-15T00:20:29.359Z,1018.54
2016-07-15T00:20:39.354Z,1018.52
2016-07-15T00:20:49.348Z,1018.52
2016-07-15T00:20:59.342Z,1018.53
2016-07-15T00:21:09.337Z,1018.51
2016-07-15T00:21:19.334Z,1018.53
2016-07-15T00:21:29.327Z,1018.54
2016-07-15T00:21:39.321Z,1018.5
2016-07-15T00:21:49.315Z,1018.58
2016-07-15T00:21:59.316Z,1018.58
2016-07-15T00:22:09.305Z,1018.56
2016-07-15T00:22:19.303Z,1018.57
2016-07-15T00:22:29.298Z,1018.52
2016-07-15T00:22:39.296Z,1018.56
2016-07-15T00:22:49.289Z,1018.5
2016-07-15T00:22:59.290Z,1018.56
2016-07-15T00:23:09.278Z,1018.55
2016-07-15T00:23:19.274Z,1018.58
2016-07-15T00:23:29.266Z,1018.54
2016-07-15T00:23:39.262Z,1018.53
2016-07-15T00:23:49.256Z,1018.51
2016-07-15T00:23:59.249Z,1018.57
2016-07-15T00:24:09.250Z,1018.53
2016-07-15T00:24:19.242Z,1018.57
2016-07-15T00:24:29.236Z,1018.55
2016-07-15T00:24:39.231Z,1018.59
2016-07-15T00:24:49.225Z,1018.58
2016-07-15T00:24:59.220Z,1018.62
2016-07-15T00:25:09.218Z,1018.56
2016-07-15T00:25:19.210Z,1018.58
2016-07-15T00:25:29.208Z,1018.57
2016-07-15T00:25:39.201Z,1018.56
2016-07-15T00:25:49.197Z,1018.56
2016-07-15T00:25:59.193Z,1018.55
2016-07-15T00:26:09.185Z,1018.61
2016-07-15T00:26:19.181Z,1018.62
2016-07-15T00:26:29.177Z,1018.59
2016-07-15T00:26:39.171Z,1018.59
2016-07-15T00:26:49.167Z,1018.6
2016-07-15T00:26:59.159Z,1018.56
2016-07-15T00:27:09.159Z,1018.65
2016-07-15T00:27:19.151Z,1018.57
2016-07-15T00:27:29.147Z,1018.6
2016-07-15T00:27:39.140Z,1018.58
2016-07-15T00:27:49.138Z,1018.54
2016-07-15T00:27:59.137Z,1018.6
2016-07-15T00:28:09.125Z,1018.58
2016-07-15T00:28:19.119Z,1018.62
2016-07-15T00:28:29.117Z,1018.58
2016-07-15T00:28:39.111Z,1018.57
2016-07-15T00:28:49.108Z,1018.56
2016-07-15T00:28:59.100Z,1018.53
2016-07-15T00:29:09.097Z,1018.53
2016-07-15T00:29:19.091Z,1018.56
2016-07-15T00:29:29.086Z,1018.56
2016-07-15T00:29:39.081Z,1018.6
2016-07-15T00:29:49.075Z,1018.55
2016-07-15T00:29:59.070Z,1018.55
2016-07-15T00:30:09.064Z,1018.59
2016-07-15T00:30:19.061Z,1018.57
2016-07-15T00:30:29.055Z,1018.62
2016-07-15T00:30:39.052Z,1018.52
2016-07-15T00:30:49.045Z,1018.56
2016-07-15T00:30:59.041Z,1018.58
2016-07-15T00:31:09.039Z,1018.54
2016-07-15T00:31:19.033Z,1018.56
2016-07-15T00:31:29.026Z,1018.56
2016-07-15T00:31:39.020Z,1018.58
2016-07-15T00:31:49.016Z,1018.59
2016-07-15T00:31:59.010Z,1018.57
2016-07-15T00:32:09.005Z,1018.53
2016-07-15T00:32:18.998Z,1018.59
2016-07-15T00:32:28.994Z,1018.52
2016-07-15T00:32:38.995Z,1018.54
2016-07-15T00:32:48.986Z,1018.53
2016-07-15T00:32:58.980Z,1018.6
2016-07-15T00:33:08.977Z,1018.58
2016-07-15T00:33:18.970Z,1018.56
2016-07-15T00:33:28.967Z,1018.58
2016-07-15T00:33:38.962Z,1018.56
2016-07-15T00:33:48.956Z,1018.58
2016-07-15T00:33:58.952Z,1018.57
2016-07-15T00:34:08.946Z,1018.57
2016-07-15T00:34:18.941Z,1018.58
2016-07-15T00:34:28.935Z,1018.57
2016-07-15T00:34:38.931Z,1018.54
2016-07-15T00:34:48.925Z,1018.58
2016-07-15T00:34:58.921Z,1018.57
2016-07-15T00:35:08.924Z,1018.61
2016-07-15T00:35:18.910Z,1018.63
2016-07-15T00:35:28.904Z,1018.61
2016-07-15T00:35:38.898Z,1018.59
2016-07-15T00:35:48.895Z,1018.62
2016-07-15T00:35:58.891Z,1018.61
2016-07-15T00:36:08.886Z,1018.58
2016-07-15T00:36:18.883Z,1018.6
2016-07-15T00:36:28.876Z,1018.62
2016-07-15T00:36:38.870Z,1018.59
2016-07-15T00:36:48.867Z,1018.62
2016-07-15T00:36:58.859Z,1018.56
2016-07-15T00:37:08.855Z,1018.57
2016-07-15T00:37:18.848Z,1018.53
2016-07-15T00:37:28.846Z,1018.6
2016-07-15T00:37:38.840Z,1018.56
2016-07-15T00:37:48.834Z,1018.56
2016-07-15T00:37:58.832Z,1018.58
2016-07-15T00:38:08.824Z,1018.59
2016-07-15T00:38:18.820Z,1018.62
2016-07-15T00:38:28.814Z,1018.59
2016-07-15T00:38:38.809Z,1018.56
2016-07-15T00:38:48.802Z,1018.57
2016-07-15T00:38:58.799Z,1018.56
2016-07-15T00:39:08.795Z,1018.58
2016-07-15T00:39:18.789Z,1018.6
2016-07-15T00:39:28.783Z,1018.59
2016-07-15T00:39:38.780Z,1018.59
2016-07-15T00:39:48.777Z,1018.59
2016-07-15T00:39:58.769Z,1018.59
2016-07-15T00:40:08.762Z,1018.6
2016-07-15T00:40:18.758Z,1018.62
2016-07-15T00:40:28.752Z,1018.6
2016-07-15T00:40:38.749Z,1018.62
2016-07-15T00:40:48.743Z,1018.62
2016-07-15T00:40:58.739Z,1018.62
2016-07-15T00:41:08.735Z,1018.58
2016-07-15T00:41:18.731Z,1018.57
2016-07-15T00:41:28.725Z,1018.59
2016-07-15T00:41:38.723Z,1018.62
2016-07-15T00:41:48.714Z,1018.56
2016-07-15T00:41:58.708Z,1018.55
2016-07-15T00:42:08.703Z,1018.59
2016-07-15T00:42:18.699Z,1018.57
2016-07-15T00:42:28.695Z,1018.55
2016-07-15T00:42:38.688Z,1018.61
2016-07-15T00:42:48.683Z,1018.59
2016-07-15T00:42:58.678Z,1018.56
2016-07-15T00:43:08.673Z,1018.56
2016-07-15T00:43:18.668Z,1018.57
2016-07-15T00:43:28.663Z,1018.52
2016-07-15T00:43:38.659Z,1018.54
2016-07-15T00:43:48.654Z,1018.56
2016-07-15T00:43:58.651Z,1018.54
2016-07-15T00:44:08.644Z,1018.55
2016-07-15T00:44:18.639Z,1018.57
2016-07-15T00:44:28.633Z,1018.59
2016-07-15T00:44:38.630Z,1018.56
2016-07-15T00:44:48.624Z,1018.55
2016-07-15T00:44:58.618Z,1018.56
2016-07-15T00:45:08.615Z,1018.56
2016-07-15T00:45:18.607Z,1018.56
2016-07-15T00:45:28.604Z,1018.55
2016-07-15T00:45:38.597Z,1018.57
2016-07-15T00:45:48.594Z,1018.56
2016-07-15T00:45:58.589Z,1018.56
2016-07-15T00:46:08.583Z,1018.58
2016-07-15T00:46:18.577Z,1018.57
2016-07-15T00:46:28.573Z,1018.53
2016-07-15T00:46:38.569Z,1018.56
2016-07-15T00:46:48.563Z,1018.58
2016-07-15T00:46:58.558Z,1018.55
2016-07-15T00:47:08.555Z,1018.58
2016-07-15T00:47:18.551Z,1018.58
2016-07-15T00:47:28.545Z,1018.55
2016-07-15T00:47:38.539Z,1018.6
2016-07-15T00:47:48.534Z,1018.58
2016-07-15T00:47:58.527Z,1018.57
2016-07-15T00:48:08.521Z,1018.61
2016-07-15T00:48:18.515Z,1018.61
2016-07-15T00:48:28.513Z,1018.59
2016-07-15T00:48:38.506Z,1018.6
2016-07-15T00:48:48.502Z,1018.59
2016-07-15T00:48:58.498Z,1018.63
2016-07-15T00:49:08.492Z,1018.64
2016-07-15T00:49:18.488Z,1018.61
2016-07-15T00:49:28.487Z,1018.58
2016-07-15T00:49:38.478Z,1018.61
2016-07-15T00:49:48.473Z,1018.59
2016-07-15T00:49:58.468Z,1018.62
2016-07-15T00:50:08.461Z,1018.61
2016-07-15T00:50:18.455Z,1018.6
2016-07-15T00:50:28.453Z,1018.63
2016-07-15T00:50:38.448Z,1018.59
2016-07-15T00:50:48.442Z,1018.63
2016-07-15T00:50:58.435Z,1018.59
2016-07-15T00:51:08.430Z,1018.64
2016-07-15T00:51:18.427Z,1018.6
2016-07-15T00:51:28.421Z,1018.6
2016-07-15T00:51:38.416Z,1018.65
2016-07-15T00:51:48.413Z,1018.59
2016-07-15T00:51:58.408Z,1018.61
2016-07-15T00:52:08.402Z,1018.61
2016-07-15T00:52:18.395Z,1018.61
2016-07-15T00:52:28.391Z,1018.55
2016-07-15T00:52:38.386Z,1018.63
2016-07-15T00:52:48.382Z,1018.6
2016-07-15T00:52:58.376Z,1018.61
2016-07-15T00:53:08.373Z,1018.58
2016-07-15T00:53:18.365Z,1018.62
2016-07-15T00:53:28.361Z,1018.57
2016-07-15T00:53:38.357Z,1018.6
2016-07-15T00:53:48.353Z,1018.61
2016-07-15T00:53:58.347Z,1018.59
2016-07-15T00:54:08.340Z,1018.53
2016-07-15T00:54:18.334Z,1018.6
2016-07-15T00:54:28.330Z,1018.59
2016-07-15T00:54:38.326Z,1018.65
2016-07-15T00:54:48.321Z,1018.63
2016-07-15T00:54:58.315Z,1018.58
2016-07-15T00:55:08.313Z,1018.59
2016-07-15T00:55:18.309Z,1018.58
2016-07-15T00:55:28.301Z,1018.58
2016-07-15T00:55:38.296Z,1018.59
2016-07-15T00:55:48.292Z,1018.57
2016-07-15T00:55:58.285Z,1018.55
2016-07-15T00:56:08.281Z,1018.58
2016-07-15T00:56:18.275Z,1018.58
2016-07-15T00:56:28.272Z,1018.59
2016-07-15T00:56:38.265Z,1018.58
2016-07-15T00:56:48.268Z,1018.55
2016-07-15T00:56:58.257Z,1018.57
2016-07-15T00:57:08.250Z,1018.53
2016-07-15T00:57:18.247Z,1018.55
2016-07-15T00:57:28.244Z,1018.56
2016-07-15T00:57:38.236Z,1018.57
2016-07-15T00:57:48.231Z,1018.48
2016-07-15T00:57:58.225Z,1018.57
2016-07-15T00:58:08.219Z,1018.57
2016-07-15T00:58:18.222Z,1018.54
2016-07-15T00:58:28.211Z,1018.54
2016-07-15T00:58:38.205Z,1018.54
2016-07-15T00:58:48.201Z,1018.53
2016-07-15T00:58:58.192Z,1018.56
2016-07-15T00:59:08.190Z,1018.54
2016-07-15T00:59:18.186Z,1018.55
2016-07-15T00:59:28.178Z,1018.52
2016-07-15T00:59:38.174Z,1018.54
2016-07-15T00:59:48.170Z,1018.52
2016-07-15T00:59:58.164Z,1018.53
2016-07-15T01:00:08.160Z,1018.54
2016-07-15T01:00:18.155Z,1018.51
2016-07-15T01:00:28.150Z,1018.57
2016-07-15T01:00:38.146Z,1018.53
2016-07-15T01:00:48.140Z,1018.54
2016-07-15T01:00:58.137Z,1018.52
2016-07-15T01:01:08.128Z,1018.51
2016-07-15T01:01:18.122Z,1018.53
2016-07-15T01:01:28.118Z,1018.53
2016-07-15T01:01:38.115Z,1018.52
2016-07-15T01:01:48.110Z,1018.52
2016-07-15T01:01:58.104Z,1018.51
2016-07-15T01:02:08.099Z,1018.56
2016-07-15T01:02:18.093Z,1018.5
2016-07-15T01:02:28.095Z,1018.51
2016-07-15T01:02:38.085Z,1018.51
2016-07-15T01:02:48.080Z,1018.52
2016-07-15T01:02:58.072Z,1018.59
2016-07-15T01:03:08.068Z,1018.56
2016-07-15T01:03:18.064Z,1018.56
2016-07-15T01:03:28.057Z,1018.56
2016-07-15T01:03:38.053Z,1018.5
2016-07-15T01:03:48.049Z,1018.53
2016-07-15T01:03:58.040Z,1018.56
2016-07-15T01:04:08.038Z,1018.56
2016-07-15T01:04:18.032Z,1018.55
2016-07-15T01:04:28.027Z,1018.52
2016-07-15T01:04:38.022Z,1018.54
2016-07-15T01:04:48.018Z,1018.58
2016-07-15T01:04:58.013Z,1018.52
2016-07-15T01:05:08.009Z,1018.53
2016-07-15T01:05:18.004Z,1018.52
2016-07-15T01:05:27.997Z,1018.59
2016-07-15T01:05:37.999Z,1018.57
2016-07-15T01:05:47.992Z,1018.52
2016-07-15T01:05:57.984Z,1018.61
2016-07-15T01:06:07.980Z,1018.55
2016-07-15T01:06:17.972Z,1018.54
2016-07-15T01:06:27.970Z,1018.55
2016-07-15T01:06:37.962Z,1018.59
2016-07-15T01:06:47.956Z,1018.57
2016-07-15T01:06:57.950Z,1018.55
2016-07-15T01:07:07.947Z,1018.56
2016-07-15T01:07:17.943Z,1018.54
2016-07-15T01:07:27.936Z,1018.5
2016-07-15T01:07:37.931Z,1018.52
2016-07-15T01:07:47.928Z,1018.55
2016-07-15T01:07:57.923Z,1018.52
2016-07-15T01:08:07.918Z,1018.52
2016-07-15T01:08:17.914Z,1018.51
2016-07-15T01:08:27.907Z,1018.52
2016-07-15T01:08:37.901Z,1018.52
2016-07-15T01:08:47.896Z,1018.56
2016-07-15T01:08:57.891Z,1018.53
2016-07-15T01:09:07.886Z,1018.55
2016-07-15T01:09:17.883Z,1018.53
2016-07-15T01:09:27.877Z,1018.5
2016-07-15T01:09:37.871Z,1018.56
2016-07-15T01:09:47.867Z,1018.56
2016-07-15T01:09:57.861Z,1018.58
2016-07-15T01:10:07.855Z,1018.58
2016-07-15T01:10:17.853Z,1018.56
2016-07-15T01:10:27.844Z,1018.52
2016-07-15T01:10:37.844Z,1018.56
2016-07-15T01:10:47.838Z,1018.55
2016-07-15T01:10:57.832Z,1018.51
2016-07-15T01:11:07.827Z,1018.55
2016-07-15T01:11:17.821Z,1018.5
2016-07-15T01:11:27.816Z,1018.49
2016-07-15T01:11:37.810Z,1018.5
2016-07-15T01:11:47.806Z,1018.49
2016-07-15T01:11:57.801Z,1018.52
2016-07-15T01:12:07.805Z,1018.49
2016-07-15T01:12:17.790Z,1018.53
2016-07-15T01:12:27.785Z,1018.5
2016-07-15T01:12:37.783Z,1018.5
2016-07-15T01:12:47.776Z,1018.51
2016-07-15T01:12:57.771Z,1018.53
2016-07-15T01:13:07.766Z,1018.5
2016-07-15T01:13:17.760Z,1018.49
2016-07-15T01:13:27.758Z,1018.48
2016-07-15T01:13:37.748Z,1018.51
2016-07-15T01:13:47.748Z,1018.46
2016-07-15T01:13:57.741Z,1018.48
2016-07-15T01:14:07.733Z,1018.47
2016-07-15T01:14:17.731Z,1018.54
2016-07-15T01:14:27.726Z,1018.46
2016-07-15T01:14:37.723Z,1018.5
2016-07-15T01:14:47.720Z,1018.5
2016-07-15T01:14:57.709Z,1018.48
2016-07-15T01:15:07.705Z,1018.47
2016-07-15T01:15:17.700Z,1018.45
2016-07-15T01:15:27.695Z,1018.5
2016-07-15T01:15:37.688Z,1018.48
2016-07-15T01:15:47.685Z,1018.49
2016-07-15T01:15:57.681Z,1018.51
2016-07-15T01:16:07.674Z,1018.48
2016-07-15T01:16:17.670Z,1018.5
2016-07-15T01:16:27.664Z,1018.52
2016-07-15T01:16:37.666Z,1018.52
2016-07-15T01:16:47.654Z,1018.52
2016-07-15T01:16:57.649Z,1018.49
2016-07-15T01:17:07.646Z,1018.5
2016-07-15T01:17:17.638Z,1018.47
2016-07-15T01:17:27.633Z,1018.49
2016-07-15T01:17:37.627Z,1018.48
2016-07-15T01:17:47.622Z,1018.49
2016-07-15T01:17:57.617Z,1018.48
2016-07-15T01:18:07.613Z,1018.49
2016-07-15T01:18:18.338Z,1018.48
2016-07-15T01:18:27.605Z,1018.46
2016-07-15T01:18:37.598Z,1018.49
2016-07-15T01:18:47.592Z,1018.49
2016-07-15T01:18:57.594Z,1018.49
2016-07-15T01:19:07.585Z,1018.48
2016-07-15T01:19:17.580Z,1018.5
2016-07-15T01:19:28.301Z,1018.51
2016-07-15T01:19:37.566Z,1018.55
2016-07-15T01:19:47.563Z,1018.51
2016-07-15T01:19:57.561Z,1018.5
2016-07-15T01:20:07.553Z,1018.56
2016-07-15T01:20:17.552Z,1018.53
2016-07-15T01:20:27.543Z,1018.49
2016-07-15T01:20:37.538Z,1018.52
2016-07-15T01:20:47.533Z,1018.55
2016-07-15T01:20:57.528Z,1018.52
2016-07-15T01:21:07.523Z,1018.51
2016-07-15T01:21:17.517Z,1018.5
2016-07-15T01:21:27.514Z,1018.48
2016-07-15T01:21:37.507Z,1018.5
2016-07-15T01:21:47.502Z,1018.54
2016-07-15T01:21:57.496Z,1018.55
2016-07-15T01:22:07.493Z,1018.55
2016-07-15T01:22:17.484Z,1018.54
2016-07-15T01:22:27.484Z,1018.54
2016-07-15T01:22:37.474Z,1018.61
2016-07-15T01:22:47.469Z,1018.6
2016-07-15T01:22:57.466Z,1018.55
2016-07-15T01:23:07.463Z,1018.61
2016-07-15T01:23:17.457Z,1018.53
2016-07-15T01:23:27.451Z,1018.58
2016-07-15T01:23:37.447Z,1018.59
2016-07-15T01:23:47.442Z,1018.57
2016-07-15T01:23:57.438Z,1018.61
2016-07-15T01:24:07.432Z,1018.57
2016-07-15T01:24:17.427Z,1018.55
2016-07-15T01:24:27.423Z,1018.58
2016-07-15T01:24:37.415Z,1018.58
2016-07-15T01:24:47.409Z,1018.59
2016-07-15T01:24:57.410Z,1018.54
2016-07-15T01:25:07.401Z,1018.6
2016-07-15T01:25:17.411Z,1018.56
2016-07-15T01:25:27.390Z,1018.57
2016-07-15T01:25:37.385Z,1018.58
2016-07-15T01:25:47.381Z,1018.59
2016-07-15T01:25:57.376Z,1018.53
2016-07-15T01:26:07.371Z,1018.59
2016-07-15T01:26:17.367Z,1018.57
2016-07-15T01:26:27.360Z,1018.52
2016-07-15T01:26:37.353Z,1018.54
2016-07-15T01:26:47.353Z,1018.57
2016-07-15T01:26:57.345Z,1018.51
2016-07-15T01:27:07.340Z,1018.53
2016-07-15T01:27:17.342Z,1018.53
2016-07-15T01:27:27.333Z,1018.52
2016-07-15T01:27:37.323Z,1018.54
2016-07-15T01:27:47.319Z,1018.56
2016-07-15T01:27:57.314Z,1018.55
2016-07-15T01:28:07.310Z,1018.58
2016-07-15T01:28:17.303Z,1018.53
2016-07-15T01:28:27.300Z,1018.51
2016-07-15T01:28:37.298Z,1018.55
2016-07-15T01:28:47.296Z,1018.55
2016-07-15T01:28:57.286Z,1018.58
2016-07-15T01:29:07.284Z,1018.55
2016-07-15T01:29:17.274Z,1018.53
2016-07-15T01:29:27.271Z,1018.53
2016-07-15T01:29:37.265Z,1018.55
2016-07-15T01:29:47.262Z,1018.57
2016-07-15T01:29:57.253Z,1018.59
2016-07-15T01:30:07.249Z,1018.59
2016-07-15T01:30:17.250Z,1018.59
2016-07-15T01:30:27.239Z,1018.56
2016-07-15T01:30:37.233Z,1018.62
2016-07-15T01:30:47.226Z,1018.54
2016-07-15T01:30:57.224Z,1018.58
2016-07-15T01:31:07.218Z,1018.56
2016-07-15T01:31:17.943Z,1018.62
2016-07-15T01:31:27.211Z,1018.59
2016-07-15T01:31:37.935Z,1018.59
2016-07-15T01:31:47.200Z,1018.55
2016-07-15T01:31:57.193Z,1018.57
2016-07-15T01:32:07.191Z,1018.55
2016-07-15T01:32:17.182Z,1018.54
2016-07-15T01:32:27.177Z,1018.6
2016-07-15T01:32:37.173Z,1018.55
2016-07-15T01:32:47.167Z,1018.59
2016-07-15T01:32:57.164Z,1018.58
2016-07-15T01:33:07.157Z,1018.55
2016-07-15T01:33:17.153Z,1018.56
2016-07-15T01:33:27.150Z,1018.56
2016-07-15T01:33:37.144Z,1018.6
2016-07-15T01:33:47.138Z,1018.57
2016-07-15T01:33:57.132Z,1018.62
2016-07-15T01:34:07.126Z,1018.61
2016-07-15T01:34:17.121Z,1018.61
2016-07-15T01:34:27.118Z,1018.61
2016-07-15T01:34:37.115Z,1018.58
2016-07-15T01:34:47.109Z,1018.59
2016-07-15T01:34:57.104Z,1018.57
2016-07-15T01:35:07.095Z,1018.65
2016-07-15T01:35:17.092Z,1018.62
2016-07-15T01:35:27.087Z,1018.55
2016-07-15T01:35:37.082Z,1018.58
2016-07-15T01:35:47.075Z,1018.56
2016-07-15T01:35:57.071Z,1018.62
2016-07-15T01:36:07.068Z,1018.6
2016-07-15T01:36:17.062Z,1018.57
2016-07-15T01:36:27.055Z,1018.6
2016-07-15T01:36:37.053Z,1018.57
2016-07-15T01:36:47.048Z,1018.56
2016-07-15T01:36:57.042Z,1018.56
2016-07-15T01:37:07.037Z,1018.58
2016-07-15T01:37:17.031Z,1018.63
2016-07-15T01:37:27.029Z,1018.59
2016-07-15T01:37:37.752Z,1018.55
2016-07-15T01:37:47.020Z,1018.6
2016-07-15T01:37:57.013Z,1018.57
2016-07-15T01:38:07.010Z,1018.56
2016-07-15T01:38:17.003Z,1018.6
2016-07-15T01:38:26.996Z,1018.65
2016-07-15T01:38:36.991Z,1018.61
2016-07-15T01:38:46.987Z,1018.58
2016-07-15T01:38:56.980Z,1018.62
2016-07-15T01:39:06.975Z,1018.56
2016-07-15T01:39:16.971Z,1018.61
2016-07-15T01:39:26.967Z,1018.57
2016-07-15T01:39:36.963Z,1018.62
2016-07-15T01:39:46.958Z,1018.55
2016-07-15T01:39:56.951Z,1018.6
2016-07-15T01:40:06.945Z,1018.64
2016-07-15T01:40:16.942Z,1018.6
2016-07-15T01:40:26.935Z,1018.61
2016-07-15T01:40:36.929Z,1018.64
2016-07-15T01:40:46.921Z,1018.62
2016-07-15T01:40:56.918Z,1018.58
2016-07-15T01:41:06.915Z,1018.6
2016-07-15T01:41:16.911Z,1018.62
2016-07-15T01:41:26.906Z,1018.6
2016-07-15T01:41:36.900Z,1018.64
2016-07-15T01:41:46.894Z,1018.61
2016-07-15T01:41:56.890Z,1018.64
2016-07-15T01:42:06.883Z,1018.62
2016-07-15T01:42:16.880Z,1018.59
2016-07-15T01:42:26.878Z,1018.66
2016-07-15T01:42:36.869Z,1018.61
2016-07-15T01:42:46.863Z,1018.55
2016-07-15T01:42:56.860Z,1018.68
2016-07-15T01:43:06.856Z,1018.63
2016-07-15T01:43:16.849Z,1018.58
2016-07-15T01:43:26.843Z,1018.63
2016-07-15T01:43:36.839Z,1018.65
2016-07-15T01:43:46.836Z,1018.66
2016-07-15T01:43:56.828Z,1018.65
2016-07-15T01:44:06.824Z,1018.64
2016-07-15T01:44:16.820Z,1018.65
2016-07-15T01:44:26.814Z,1018.6
2016-07-15T01:44:36.811Z,1018.63
2016-07-15T01:44:46.805Z,1018.61
2016-07-15T01:44:56.800Z,1018.65
2016-07-15T01:45:06.796Z,1018.63
2016-07-15T01:45:16.789Z,1018.65
2016-07-15T01:45:26.782Z,1018.66
2016-07-15T01:45:36.779Z,1018.61
2016-07-15T01:45:46.770Z,1018.62
2016-07-15T01:45:56.769Z,1018.64
2016-07-15T01:46:06.771Z,1018.62
2016-07-15T01:46:16.762Z,1018.67
2016-07-15T01:46:26.754Z,1018.67
2016-07-15T01:46:36.748Z,1018.63
2016-07-15T01:46:46.743Z,1018.66
2016-07-15T01:46:56.739Z,1018.59
2016-07-15T01:47:06.733Z,1018.64
2016-07-15T01:47:16.729Z,1018.63
2016-07-15T01:47:26.721Z,1018.64
2016-07-15T01:47:36.721Z,1018.68
2016-07-15T01:47:46.713Z,1018.66
2016-07-15T01:47:56.716Z,1018.6
2016-07-15T01:48:06.703Z,1018.66
2016-07-15T01:48:16.696Z,1018.66
2016-07-15T01:48:26.692Z,1018.63
2016-07-15T01:48:36.688Z,1018.62
2016-07-15T01:48:46.683Z,1018.67
2016-07-15T01:48:56.677Z,1018.67
2016-07-15T01:49:06.673Z,1018.62
2016-07-15T01:49:16.668Z,1018.65
2016-07-15T01:49:26.661Z,1018.65
2016-07-15T01:49:36.655Z,1018.67
2016-07-15T01:49:46.651Z,1018.64
2016-07-15T01:49:56.647Z,1018.66
2016-07-15T01:50:06.644Z,1018.64
2016-07-15T01:50:16.639Z,1018.69
2016-07-15T01:50:26.634Z,1018.61
2016-07-15T01:50:36.627Z,1018.62
2016-07-15T01:50:46.621Z,1018.62
2016-07-15T01:50:56.616Z,1018.65
2016-07-15T01:51:06.610Z,1018.63
2016-07-15T01:51:16.617Z,1018.69
2016-07-15T01:51:26.600Z,1018.65
2016-07-15T01:51:36.596Z,1018.68
2016-07-15T01:51:46.591Z,1018.61
2016-07-15T01:51:56.586Z,1018.62
2016-07-15T01:52:06.583Z,1018.63
2016-07-15T01:52:16.578Z,1018.66
2016-07-15T01:52:26.571Z,1018.66
2016-07-15T01:52:36.568Z,1018.66
2016-07-15T01:52:46.564Z,1018.7
2016-07-15T01:52:56.558Z,1018.7
2016-07-15T01:53:06.553Z,1018.65
2016-07-15T01:53:16.544Z,1018.68
2016-07-15T01:53:26.539Z,1018.65
2016-07-15T01:53:36.536Z,1018.62
2016-07-15T01:53:46.531Z,1018.65
2016-07-15T01:53:56.527Z,1018.65
2016-07-15T01:54:06.520Z,1018.67
2016-07-15T01:54:16.524Z,1018.68
2016-07-15T01:54:26.511Z,1018.68
2016-07-15T01:54:36.506Z,1018.65
2016-07-15T01:54:46.500Z,1018.64
2016-07-15T01:54:56.497Z,1018.67
2016-07-15T01:55:06.490Z,1018.66
2016-07-15T01:55:16.486Z,1018.7
2016-07-15T01:55:26.482Z,1018.69
2016-07-15T01:55:36.475Z,1018.63
2016-07-15T01:55:46.471Z,1018.67
2016-07-15T01:55:56.465Z,1018.68
2016-07-15T01:56:06.459Z,1018.65
2016-07-15T01:56:16.455Z,1018.67
2016-07-15T01:56:26.447Z,1018.68
2016-07-15T01:56:36.445Z,1018.66
2016-07-15T01:56:46.438Z,1018.66
2016-07-15T01:56:56.434Z,1018.67
2016-07-15T01:57:06.432Z,1018.68
2016-07-15T01:57:16.423Z,1018.7
2016-07-15T01:57:26.425Z,1018.67
2016-07-15T01:57:37.144Z,1018.69
2016-07-15T01:57:47.140Z,1018.68
2016-07-15T01:57:56.407Z,1018.64
2016-07-15T01:58:06.400Z,1018.68
2016-07-15T01:58:16.397Z,1018.69
2016-07-15T01:58:26.390Z,1018.66
2016-07-15T01:58:36.383Z,1018.68
2016-07-15T01:58:46.380Z,1018.7
2016-07-15T01:58:56.373Z,1018.71
2016-07-15T01:59:06.369Z,1018.72
2016-07-15T01:59:16.364Z,1018.68
2016-07-15T01:59:26.359Z,1018.71
2016-07-15T01:59:36.351Z,1018.72
2016-07-15T01:59:46.348Z,1018.75
2016-07-15T01:59:56.343Z,1018.7
2016-07-15T02:00:06.339Z,1018.74
2016-07-15T02:00:16.335Z,1018.74
2016-07-15T02:00:26.329Z,1018.73
2016-07-15T02:00:36.323Z,1018.75
2016-07-15T02:00:46.318Z,1018.77
2016-07-15T02:00:56.316Z,1018.74
2016-07-15T02:01:06.309Z,1018.73
2016-07-15T02:01:16.307Z,1018.77
2016-07-15T02:01:26.299Z,1018.72